Time;durP1;ratioP1;P1;durP2;ratioP2;P2;SDS_P1;SDS_P2;PMS_P1;PMS_P2;Temp;Humidity;BMP_temperature;BMP_pressure;BME280_temperature;BME280_humidity;BME280_pressure;Samples;Min_cycle;Max_cycle;Signal;HPM_P1;HPM_P2
2022/10/11 00:02:31;;;;;;;28.40;15.90;;;;;;;10.83;61.03;99413.98;221438;1247;139517;-64
2022/10/11 00:07:38;;;;;;;25.90;15.50;;;;;;;10.79;61.34;99411.73;221294;1247;140689;-66
2022/10/11 00:12:42;;;;;;;25.60;15.90;;;;;;;10.75;61.32;99408.75;221451;1246;139592;-65
2022/10/11 00:17:47;;;;;;;25.60;14.90;;;;;;;10.71;61.42;99409.67;221517;1247;140173;-65
2022/10/11 00:22:50;;;;;;;28.90;15.80;;;;;;;10.69;61.51;99406.26;221481;1246;139519;-65
2022/10/11 00:27:54;;;;;;;21.70;13.90;;;;;;;10.68;61.74;99415.34;221485;1246;139625;-66
2022/10/11 00:32:58;;;;;;;25.30;15.50;;;;;;;10.72;61.76;99409.80;221515;1246;140370;-67
2022/10/11 00:38:02;;;;;;;25.10;14.50;;;;;;;10.77;61.85;99409.48;221394;1246;140485;-64
2022/10/11 00:43:18;;;;;;;29.80;15.80;;;;;;;10.82;62.10;99412.23;221213;1247;139713;-65
2022/10/11 00:48:31;;;;;;;25.10;15.00;;;;;;;10.87;61.98;99413.58;221346;1246;139371;-65
2022/10/11 00:53:35;;;;;;;25.50;15.10;;;;;;;10.86;61.86;99409.85;221499;1246;140182;-65
2022/10/11 00:58:41;;;;;;;24.90;15.40;;;;;;;10.85;62.17;99416.11;221348;1246;139402;-65
2022/10/11 01:03:44;;;;;;;22.50;13.60;;;;;;;10.84;62.17;99415.34;221080;1247;139668;-65
2022/10/11 01:08:50;;;;;;;26.30;14.50;;;;;;;10.81;62.02;99416.36;221367;1246;139259;-65
2022/10/11 01:14:03;;;;;;;28.20;14.60;;;;;;;10.78;62.21;99418.33;221479;1247;139889;-61
2022/10/11 01:19:20;;;;;;;23.50;15.00;;;;;;;10.71;61.83;99418.73;221431;1246;140085;-61
2022/10/11 01:24:49;;;;;;;24.70;14.10;;;;;;;10.67;62.36;99415.60;221340;1247;139266;-65
2022/10/11 01:30:21;;;;;;;27.60;14.10;;;;;;;10.61;62.31;99415.23;221212;1253;139781;-65
2022/10/11 01:35:41;;;;;;;32.20;14.60;;;;;;;10.61;62.45;99413.07;221394;1246;140184;-64
2022/10/11 01:40:54;;;;;;;27.10;14.90;;;;;;;10.67;62.70;99411.34;221365;1244;139906;-64
2022/10/11 01:46:01;;;;;;;24.40;14.00;;;;;;;10.72;62.71;99412.24;221444;1246;140171;-64
2022/10/11 01:51:05;;;;;;;26.50;14.20;;;;;;;10.74;62.62;99412.70;221550;1246;141579;-65
2022/10/11 01:56:16;;;;;;;23.70;13.50;;;;;;;10.70;62.90;99414.90;221428;1240;140918;-64
2022/10/11 02:01:45;;;;;;;21.80;12.70;;;;;;;10.74;63.26;99418.93;221491;1247;140800;-64
2022/10/11 02:07:21;;;;;;;23.30;13.00;;;;;;;10.90;63.16;99421.02;221426;1246;139437;-63
2022/10/11 02:12:32;;;;;;;25.00;12.00;;;;;;;11.08;63.12;99411.80;221464;1247;139534;-62
2022/10/11 02:17:43;;;;;;;19.50;11.90;;;;;;;11.21;63.04;99416.05;221326;1250;139807;-63
2022/10/11 02:22:50;;;;;;;21.10;12.60;;;;;;;11.31;62.84;99418.42;221191;1240;140224;-63
2022/10/11 02:28:01;;;;;;;23.60;12.40;;;;;;;11.40;62.65;99415.42;221215;1247;140559;-62
2022/10/11 02:33:11;;;;;;;23.50;11.90;;;;;;;11.52;62.57;99415.75;221390;1253;141026;-63
2022/10/11 02:38:21;;;;;;;23.00;12.70;;;;;;;11.67;62.59;99413.82;221312;1247;139975;-63
2022/10/11 02:43:41;;;;;;;21.60;12.80;;;;;;;11.74;62.27;99416.23;221444;1247;140177;-63
2022/10/11 02:48:44;;;;;;;22.50;13.80;;;;;;;11.75;62.13;99416.19;221305;1240;140117;-63
2022/10/11 02:53:48;;;;;;;18.70;13.30;;;;;;;11.80;62.08;99417.49;221343;1246;140433;-64
2022/10/11 02:58:51;;;;;;;23.80;13.80;;;;;;;11.79;62.15;99422.34;221427;1246;139449;-63
2022/10/11 03:03:55;;;;;;;21.50;13.50;;;;;;;11.78;61.92;99428.79;221480;1246;140730;-63
2022/10/11 03:08:58;;;;;;;23.70;14.30;;;;;;;11.75;62.00;99431.10;221468;1247;141236;-63
2022/10/11 03:14:03;;;;;;;21.10;13.40;;;;;;;11.76;62.05;99431.37;221364;1240;141117;-61
2022/10/11 03:19:07;;;;;;;21.60;13.60;;;;;;;11.76;62.14;99427.15;221474;1246;139832;-61
2022/10/11 03:24:11;;;;;;;23.50;13.40;;;;;;;11.76;62.18;99433.21;221424;1247;140441;-60
2022/10/11 03:29:15;;;;;;;22.80;14.00;;;;;;;11.78;61.93;99433.78;221451;1247;139889;-62
2022/10/11 03:34:19;;;;;;;24.00;12.90;;;;;;;11.75;62.19;99434.99;221507;1247;140357;-61
2022/10/11 03:39:23;;;;;;;19.00;13.00;;;;;;;11.81;62.28;99438.95;221509;1246;140931;-61
2022/10/11 03:44:26;;;;;;;21.70;13.00;;;;;;;11.97;62.66;99446.54;221455;1248;139806;-58
2022/10/11 03:49:31;;;;;;;19.60;12.10;;;;;;;12.15;62.83;99448.42;221537;1247;141602;-59
2022/10/11 03:54:35;;;;;;;21.10;12.50;;;;;;;12.33;62.54;99444.12;221483;1248;139510;-60
2022/10/11 03:59:38;;;;;;;21.60;13.00;;;;;;;12.41;62.32;99445.05;221510;1246;143433;-60
2022/10/11 04:04:43;;;;;;;22.10;13.40;;;;;;;12.42;62.25;99446.91;221431;1247;139469;-60
2022/10/11 04:09:46;;;;;;;24.10;13.40;;;;;;;12.44;62.18;99447.34;221344;1246;142268;-61
2022/10/11 04:14:49;;;;;;;25.70;13.70;;;;;;;12.41;62.17;99451.26;221576;1243;140133;-62
2022/10/11 04:19:53;;;;;;;26.50;15.00;;;;;;;12.42;62.36;99450.50;221418;1250;140375;-63
2022/10/11 04:24:57;;;;;;;24.30;14.90;;;;;;;12.44;62.05;99453.41;221462;1253;139943;-64
2022/10/11 04:30:03;;;;;;;67.60;43.20;;;;;;;12.42;62.13;99454.20;221360;1246;139687;-64
2022/10/11 04:35:08;;;;;;;29.20;16.30;;;;;;;12.50;62.37;99459.38;221284;1249;142231;-64
2022/10/11 04:40:13;;;;;;;35.50;15.70;;;;;;;12.62;62.21;99457.06;221509;1246;140112;-63
2022/10/11 04:45:16;;;;;;;29.40;16.70;;;;;;;12.68;62.24;99458.96;221679;1249;139561;-63
2022/10/11 04:50:19;;;;;;;85.20;50.90;;;;;;;12.71;62.19;99463.63;221539;1246;140565;-65
2022/10/11 04:55:23;;;;;;;29.20;16.10;;;;;;;12.70;62.15;99467.54;221618;1246;139294;-68
2022/10/11 05:00:26;;;;;;;23.70;14.60;;;;;;;12.73;62.22;99473.61;221413;1246;140221;-66
2022/10/11 05:05:30;;;;;;;31.40;16.10;;;;;;;12.75;61.78;99477.52;221386;1253;139434;-67
2022/10/11 05:10:34;;;;;;;30.80;14.40;;;;;;;12.75;62.05;99475.62;221324;1248;139639;-66
2022/10/11 05:15:38;;;;;;;26.20;14.00;;;;;;;12.74;61.85;99483.88;221360;1247;139766;-66
2022/10/11 05:20:42;;;;;;;22.80;13.60;;;;;;;12.75;62.04;99485.77;221358;1246;140022;-67
2022/10/11 05:25:45;;;;;;;48.10;29.70;;;;;;;12.75;61.65;99489.84;221450;1248;139764;-65
2022/10/11 05:30:49;;;;;;;19.50;12.50;;;;;;;12.79;61.68;99500.46;221430;1253;140084;-64
2022/10/11 05:35:53;;;;;;;20.40;12.20;;;;;;;12.87;61.78;99511.69;221387;1253;140609;-63
2022/10/11 05:41:01;;;;;;;22.40;12.30;;;;;;;12.97;61.56;99513.73;221405;1248;139954;-63
2022/10/11 05:46:05;;;;;;;25.20;13.20;;;;;;;13.08;62.07;99518.95;221265;1249;140489;-64
2022/10/11 05:51:11;;;;;;;23.70;14.10;;;;;;;13.17;62.05;99528.45;221421;1249;139206;-63
2022/10/11 05:56:20;;;;;;;26.10;14.50;;;;;;;13.24;61.62;99536.23;221415;1252;140281;-65
2022/10/11 06:01:26;;;;;;;29.20;14.00;;;;;;;13.28;61.51;99540.29;221286;1250;139263;-65
2022/10/11 06:06:32;;;;;;;24.30;12.90;;;;;;;13.29;61.44;99546.13;221362;1247;140477;-65
2022/10/11 06:11:36;;;;;;;22.10;13.50;;;;;;;13.29;61.35;99554.80;221285;1247;140121;-65
2022/10/11 06:16:41;;;;;;;23.40;13.10;;;;;;;13.31;61.23;99560.94;221274;1253;140187;-65
2022/10/11 06:21:45;;;;;;;38.90;21.90;;;;;;;13.33;61.19;99564.55;223322;1236;141161;-71
2022/10/11 06:26:48;;;;;;;27.50;14.00;;;;;;;13.35;61.29;99568.67;224231;1246;140523;-68
2022/10/11 06:31:51;;;;;;;30.80;14.80;;;;;;;13.40;61.39;99569.81;223630;1251;139518;-66
2022/10/11 06:36:54;;;;;;;29.30;15.30;;;;;;;13.50;61.34;99576.30;223621;1254;140972;-68
2022/10/11 06:41:57;;;;;;;23.90;14.80;;;;;;;13.62;61.17;99579.59;223609;1254;139406;-67
2022/10/11 06:47:01;;;;;;;27.40;14.30;;;;;;;13.74;61.26;99579.52;224241;1242;142686;-68
2022/10/11 06:52:04;;;;;;;93.10;57.20;;;;;;;13.80;60.79;99589.95;223589;1255;141736;-70
2022/10/11 06:57:07;;;;;;;24.70;14.90;;;;;;;13.86;60.72;99595.81;224293;1244;141252;-67
2022/10/11 07:02:10;;;;;;;32.50;13.40;;;;;;;13.95;60.82;99598.05;223579;1254;140097;-65
2022/10/11 07:07:13;;;;;;;25.30;14.40;;;;;;;14.04;60.64;99606.91;224114;1247;140084;-68
2022/10/11 07:12:16;;;;;;;29.80;15.20;;;;;;;14.11;60.60;99611.30;223619;1251;140478;-65
2022/10/11 07:17:19;;;;;;;19.80;11.30;;;;;;;14.15;60.52;99614.18;224132;1247;139894;-65
2022/10/11 07:22:22;;;;;;;20.30;11.40;;;;;;;14.24;60.55;99620.77;223607;1255;140661;-71
2022/10/11 07:27:25;;;;;;;19.50;11.10;;;;;;;14.32;60.55;99629.67;223714;1251;139585;-66
2022/10/11 07:32:28;;;;;;;30.60;18.40;;;;;;;14.40;60.41;99638.76;223544;1251;139471;-66
2022/10/11 07:37:32;;;;;;;20.30;10.60;;;;;;;14.49;60.75;99639.60;223544;1253;141382;-66
2022/10/11 07:42:36;;;;;;;21.30;9.70;;;;;;;14.52;60.95;99636.55;224131;1247;140628;-66
2022/10/11 07:47:39;;;;;;;19.50;10.50;;;;;;;14.53;61.42;99644.89;223586;1254;141503;-67
2022/10/11 07:52:42;;;;;;;21.40;11.60;;;;;;;14.49;61.41;99648.02;224124;1241;140729;-66
2022/10/11 07:57:45;;;;;;;20.50;11.10;;;;;;;14.44;61.60;99656.16;224226;1251;140900;-66
2022/10/11 08:02:48;;;;;;;21.10;11.80;;;;;;;14.41;61.64;99658.13;224176;1237;142662;-66
2022/10/11 08:07:51;;;;;;;19.80;11.00;;;;;;;14.38;61.70;99657.81;223616;1261;139868;-66
2022/10/11 08:12:54;;;;;;;19.00;10.60;;;;;;;14.40;61.91;99661.22;223653;1255;140526;-66
2022/10/11 08:18:03;;;;;;;15.50;9.90;;;;;;;14.48;61.97;99670.56;223560;1260;140078;-66
2022/10/11 08:23:06;;;;;;;16.80;10.40;;;;;;;14.52;61.98;99678.70;223576;1246;139501;-66
2022/10/11 08:28:14;;;;;;;16.40;9.00;;;;;;;14.55;62.02;99676.70;223533;1254;140224;-66
2022/10/11 08:33:18;;;;;;;19.00;9.80;;;;;;;14.55;61.99;99689.18;223735;1248;142260;-66
2022/10/11 08:38:22;;;;;;;17.50;10.40;;;;;;;14.56;62.22;99689.80;223584;1254;141124;-67
2022/10/11 08:43:28;;;;;;;24.00;11.20;;;;;;;14.59;62.03;99690.73;223556;1253;140468;-67
2022/10/11 08:48:35;;;;;;;17.30;10.40;;;;;;;14.61;62.24;99688.05;223510;1258;139809;-67
2022/10/11 08:53:52;;;;;;;15.80;9.60;;;;;;;14.69;62.10;99691.95;224149;1247;140422;-66
2022/10/11 08:59:03;;;;;;;20.90;10.00;;;;;;;14.83;62.52;99697.08;224127;1247;140414;-66
2022/10/11 09:04:12;;;;;;;18.40;10.10;;;;;;;15.00;62.57;99696.79;224146;1247;140688;-66
2022/10/11 09:09:33;;;;;;;18.70;11.40;;;;;;;15.13;62.31;99693.23;223534;1254;139958;-67
2022/10/11 09:15:00;;;;;;;22.40;10.40;;;;;;;15.23;62.21;99686.96;223972;1250;141280;-66
2022/10/11 09:20:46;;;;;;;18.60;10.20;;;;;;;15.33;62.17;99691.59;223415;1260;139631;-66
2022/10/11 09:25:58;;;;;;;22.10;10.60;;;;;;;15.44;62.22;99690.69;223102;1261;139833;-66
2022/10/11 09:31:01;;;;;;;21.60;10.10;;;;;;;15.48;62.00;99691.29;224048;1247;139837;-66
2022/10/11 09:36:28;;;;;;;19.90;9.50;;;;;;;15.55;61.89;99700.90;223446;1251;139518;-66
2022/10/11 09:41:58;;;;;;;23.20;9.70;;;;;;;15.68;61.82;99701.84;223586;1257;140509;-67
2022/10/11 09:47:04;;;;;;;33.30;20.00;;;;;;;15.84;61.93;99700.30;223903;1247;140490;-67
2022/10/11 09:52:15;;;;;;;21.20;10.00;;;;;;;15.98;61.79;99697.30;224096;1247;141937;-67
2022/10/11 09:57:32;;;;;;;13.60;8.90;;;;;;;16.14;61.70;99690.58;221622;1247;140134;-65
2022/10/11 10:02:43;;;;;;;24.40;9.00;;;;;;;16.32;61.50;99690.14;221394;1247;139032;-66
2022/10/11 10:08:08;;;;;;;17.80;8.70;;;;;;;16.44;61.44;99691.00;221296;1250;139827;-66
2022/10/11 10:13:35;;;;;;;17.80;8.30;;;;;;;16.53;61.25;99697.25;221385;1250;139640;-66
2022/10/11 10:18:53;;;;;;;165.70;121.00;;;;;;;16.57;61.14;99698.96;221287;1253;140218;-65
2022/10/11 10:24:02;;;;;;;17.00;10.90;;;;;;;16.62;61.02;99702.20;221145;1250;140246;-68
2022/10/11 10:29:08;;;;;;;17.10;9.00;;;;;;;16.68;60.94;99703.66;221278;1246;139614;-68
2022/10/11 10:34:18;;;;;;;21.60;9.50;;;;;;;16.70;60.70;99708.50;221318;1247;139519;-67
2022/10/11 10:39:44;;;;;;;17.70;8.50;;;;;;;16.71;60.60;99708.28;221242;1246;139770;-66
2022/10/11 10:44:53;;;;;;;14.80;8.80;;;;;;;16.72;60.46;99711.21;221271;1246;139554;-65
2022/10/11 10:50:13;;;;;;;19.80;8.60;;;;;;;16.76;60.57;99716.34;221142;1247;139182;-66
2022/10/11 10:55:43;;;;;;;18.80;8.20;;;;;;;16.81;60.41;99714.92;221383;1247;139445;-67
2022/10/11 11:00:54;;;;;;;17.60;8.20;;;;;;;16.85;60.38;99714.41;221331;1247;139233;-66
2022/10/11 11:06:11;;;;;;;15.50;8.50;;;;;;;16.92;60.34;99708.71;221435;1246;139518;-66
2022/10/11 11:11:38;;;;;;;14.90;7.50;;;;;;;17.03;60.41;99705.48;221349;1250;141311;-65
2022/10/11 11:17:04;;;;;;;18.30;8.60;;;;;;;17.15;60.15;99705.97;221192;1247;141605;-65
2022/10/11 11:22:19;;;;;;;13.70;8.20;;;;;;;17.31;60.24;99702.97;221332;1247;140414;-66
2022/10/11 11:27:32;;;;;;;18.00;8.90;;;;;;;17.50;60.21;99701.60;221434;1246;139571;-65
2022/10/11 11:32:58;;;;;;;17.20;9.10;;;;;;;17.56;59.97;99706.17;221295;1246;139281;-66
2022/10/11 11:38:13;;;;;;;19.20;9.10;;;;;;;17.51;59.44;99709.91;221400;1246;139218;-66
2022/10/11 11:43:52;;;;;;;16.10;8.90;;;;;;;17.49;59.28;99706.69;221275;1253;140197;-66
2022/10/11 11:49:01;;;;;;;17.60;9.40;;;;;;;17.51;59.37;99706.01;221238;1246;140237;-66
2022/10/11 11:54:17;;;;;;;14.60;8.00;;;;;;;17.53;58.91;99709.10;221348;1246;140080;-66
2022/10/11 11:59:38;;;;;;;12.50;7.50;;;;;;;17.51;58.72;99707.77;221341;1246;140831;-67
2022/10/11 12:04:44;;;;;;;13.90;7.80;;;;;;;17.50;58.54;99709.98;221408;1240;139777;-67
2022/10/11 12:10:25;;;;;;;15.30;6.60;;;;;;;17.46;58.53;99709.77;221395;1246;139583;-67
2022/10/11 12:15:28;;;;;;;14.10;7.00;;;;;;;17.40;58.54;99713.50;221322;1247;140969;-68
2022/10/11 12:20:40;;;;;;;12.70;8.10;;;;;;;17.37;58.47;99715.86;221297;1247;140045;-68
2022/10/11 12:25:45;;;;;;;14.20;8.00;;;;;;;17.37;58.25;99719.17;221361;1249;140098;-65
2022/10/11 12:30:52;;;;;;;18.30;9.00;;;;;;;17.39;58.30;99722.88;221287;1246;139736;-66
2022/10/11 12:36:01;;;;;;;125.80;81.50;;;;;;;17.41;58.34;99725.64;221331;1247;139031;-67
2022/10/11 12:41:17;;;;;;;19.70;11.60;;;;;;;17.41;58.22;99728.84;221334;1248;139750;-65
2022/10/11 12:46:27;;;;;;;12.60;8.70;;;;;;;17.41;58.10;99731.38;221289;1247;141038;-66
2022/10/11 12:51:40;;;;;;;20.70;9.50;;;;;;;17.35;58.10;99739.56;221424;1246;139453;-66
2022/10/11 12:56:50;;;;;;;13.70;9.20;;;;;;;17.33;58.08;99739.92;221316;1246;139312;-66
2022/10/11 13:01:58;;;;;;;51.40;37.40;;;;;;;17.33;58.29;99747.25;221245;1247;139856;-70
2022/10/11 13:07:12;;;;;;;13.30;8.80;;;;;;;17.38;58.34;99756.57;221335;1250;139844;-66
2022/10/11 13:12:20;;;;;;;11.30;6.00;;;;;;;17.34;57.94;99767.66;221245;1247;139327;-67
2022/10/11 13:17:33;;;;;;;15.00;8.10;;;;;;;17.26;57.81;99766.25;221295;1246;139743;-67
2022/10/11 13:22:43;;;;;;;25.10;12.00;;;;;;;17.19;57.74;99774.56;221221;1240;139260;-66
2022/10/11 13:27:48;;;;;;;;;;;;;;;17.09;57.42;99769.91;221497;1246;139554;-68
2022/10/11 13:32:53;;;;;;;62.50;39.90;;;;;;;17.00;57.15;99773.86;221299;1247;125730;-66
2022/10/11 13:37:57;;;;;;;14.20;7.30;;;;;;;16.94;57.28;99779.10;221180;1247;143587;-67
2022/10/11 13:43:04;;;;;;;40.80;28.20;;;;;;;16.87;57.08;99780.39;221138;1247;143591;-67
2022/10/11 13:48:14;;;;;;;10.90;6.80;;;;;;;16.84;57.05;99784.23;221289;1247;143437;-67
2022/10/11 13:53:24;;;;;;;11.50;7.70;;;;;;;16.77;56.89;99780.23;221215;1246;143777;-68
2022/10/11 13:58:44;;;;;;;10.50;6.80;;;;;;;16.76;56.87;99778.13;221288;1246;143770;-68
2022/10/11 14:03:59;;;;;;;8.40;6.10;;;;;;;16.71;56.60;99781.38;221197;1248;139065;-69
2022/10/11 14:09:04;;;;;;;12.20;6.10;;;;;;;16.65;56.60;99780.27;221411;1248;139587;-68
2022/10/11 14:14:27;;;;;;;13.10;6.40;;;;;;;16.55;56.45;99781.67;221233;1246;139407;-69
2022/10/11 14:19:31;;;;;;;12.40;6.60;;;;;;;16.51;56.55;99780.60;221256;1241;140789;-68
2022/10/11 14:24:36;;;;;;;11.30;5.80;;;;;;;16.47;56.66;99778.73;221238;1246;139440;-69
2022/10/11 14:29:43;;;;;;;10.00;5.90;;;;;;;16.40;56.83;99781.17;221334;1247;139853;-69
2022/10/11 14:35:18;;;;;;;9.60;5.40;;;;;;;16.34;56.78;99781.11;221264;1246;140495;-70
2022/10/11 14:40:25;;;;;;;12.20;5.40;;;;;;;16.29;56.90;99779.83;221340;1246;139061;-69
2022/10/11 14:45:30;;;;;;;11.50;5.70;;;;;;;16.28;57.04;99776.73;221336;1246;139360;-68
2022/10/11 14:50:44;;;;;;;7.00;5.10;;;;;;;16.26;56.97;99779.35;221159;1246;139711;-66
2022/10/11 14:55:48;;;;;;;80.40;51.90;;;;;;;16.24;57.03;99781.48;221276;1247;138934;-67
2022/10/11 15:00:52;;;;;;;10.20;5.60;;;;;;;16.24;57.04;99785.28;221373;1246;139385;-68
2022/10/11 15:05:56;;;;;;;8.20;4.60;;;;;;;16.23;57.02;99785.31;221256;1246;139681;-69
2022/10/11 15:11:00;;;;;;;10.40;5.40;;;;;;;16.23;56.99;99788.88;221278;1244;139025;-68
2022/10/11 15:16:05;;;;;;;9.00;4.70;;;;;;;16.23;56.94;99788.54;221158;1246;139969;-65
2022/10/11 15:21:15;;;;;;;10.30;4.90;;;;;;;16.23;56.80;99789.08;221341;1246;139220;-68
2022/10/11 15:26:27;;;;;;;245.50;177.00;;;;;;;16.24;56.87;99793.48;221254;1243;140820;-67
2022/10/11 15:31:31;;;;;;;14.40;9.40;;;;;;;16.23;56.98;99797.29;221301;1249;139817;-68
2022/10/11 15:36:35;;;;;;;11.50;7.00;;;;;;;16.23;57.10;99803.96;221353;1246;142698;-69
2022/10/11 15:41:38;;;;;;;10.20;6.50;;;;;;;16.21;57.08;99810.58;221205;1244;140199;-69
2022/10/11 15:46:42;;;;;;;13.00;6.50;;;;;;;16.17;56.94;99816.95;221294;1246;139466;-69
2022/10/11 15:51:46;;;;;;;12.00;6.90;;;;;;;16.12;57.04;99823.36;221421;1246;139340;-65
2022/10/11 15:56:50;;;;;;;10.70;6.80;;;;;;;16.07;57.10;99824.08;221336;1246;139424;-66
2022/10/11 16:01:53;;;;;;;20.60;8.20;;;;;;;16.04;57.14;99830.20;221317;1246;141180;-64
2022/10/11 16:06:57;;;;;;;16.10;8.10;;;;;;;15.99;57.20;99835.41;221307;1240;139995;-65
2022/10/11 16:12:02;;;;;;;13.60;6.80;;;;;;;15.92;57.22;99836.46;221225;1244;140000;-63
2022/10/11 16:17:06;;;;;;;15.10;8.00;;;;;;;15.85;57.59;99847.63;221049;1246;139416;-63
2022/10/11 16:22:10;;;;;;;9.20;7.60;;;;;;;15.82;57.62;99855.02;220786;1246;141039;-63
2022/10/11 16:27:14;;;;;;;11.50;8.30;;;;;;;15.75;57.56;99856.27;221330;1247;138995;-61
2022/10/11 16:32:22;;;;;;;11.40;7.80;;;;;;;15.70;58.04;99858.25;221002;1246;139284;-64
2022/10/11 16:37:26;;;;;;;14.50;8.10;;;;;;;15.63;57.95;99862.46;221092;1244;140861;-64
2022/10/11 16:42:32;;;;;;;16.20;9.80;;;;;;;15.54;57.97;99866.13;221244;1246;140062;-65
2022/10/11 16:47:36;;;;;;;13.90;8.20;;;;;;;15.47;58.16;99868.05;221141;1246;139293;-64
2022/10/11 16:52:41;;;;;;;18.00;8.30;;;;;;;15.41;58.24;99874.73;221197;1247;140676;-64
2022/10/11 16:57:45;;;;;;;119.70;78.20;;;;;;;15.37;58.40;99888.00;221368;1246;139620;-63
2022/10/11 17:02:49;;;;;;;17.60;10.60;;;;;;;15.36;59.04;99891.13;221400;1246;139506;-63
2022/10/11 17:07:52;;;;;;;14.00;9.10;;;;;;;15.28;58.84;99895.60;221371;1246;140097;-64
2022/10/11 17:12:55;;;;;;;13.70;8.70;;;;;;;15.24;59.01;99895.69;221286;1240;139146;-64
2022/10/11 17:17:59;;;;;;;20.40;9.30;;;;;;;15.18;58.91;99901.82;221343;1244;140231;-64
2022/10/11 17:23:03;;;;;;;17.50;9.70;;;;;;;15.07;59.11;99898.62;221254;1247;139792;-64
2022/10/11 17:28:07;;;;;;;64.60;45.90;;;;;;;14.96;59.27;99902.24;221417;1247;139439;-65
2022/10/11 17:33:12;;;;;;;19.30;10.60;;;;;;;14.91;59.57;99904.36;221447;1240;140238;-64
2022/10/11 17:38:18;;;;;;;14.90;10.00;;;;;;;14.79;59.51;99906.71;221264;1246;140203;-64
2022/10/11 17:43:22;;;;;;;13.90;8.80;;;;;;;14.62;59.50;99911.98;221427;1246;140872;-64
2022/10/11 17:48:27;;;;;;;12.40;8.60;;;;;;;14.44;59.49;99908.10;221173;1246;140390;-64
2022/10/11 17:53:31;;;;;;;16.00;10.00;;;;;;;14.27;59.43;99911.69;221358;1240;139344;-65
2022/10/11 17:58:36;;;;;;;16.50;8.80;;;;;;;14.17;59.38;99919.79;221215;1240;140941;-63
2022/10/11 18:03:42;;;;;;;14.30;7.70;;;;;;;14.12;59.44;99926.52;221351;1245;140168;-64
2022/10/11 18:08:45;;;;;;;20.40;8.40;;;;;;;14.05;59.28;99929.46;221362;1246;139436;-64
2022/10/11 18:13:52;;;;;;;14.60;7.70;;;;;;;13.96;59.03;99933.76;221378;1246;139452;-64
2022/10/11 18:18:57;;;;;;;13.80;6.90;;;;;;;13.84;59.04;99933.80;221380;1247;139874;-66
2022/10/11 18:24:16;;;;;;;14.90;7.50;;;;;;;13.71;58.66;99937.95;221361;1246;139511;-63
2022/10/11 18:29:19;;;;;;;16.70;7.90;;;;;;;13.60;58.59;99943.83;221211;1246;140569;-64
2022/10/11 18:34:23;;;;;;;18.20;8.10;;;;;;;13.48;58.28;99945.58;221324;1240;140037;-64
2022/10/11 18:39:27;;;;;;;191.40;136.40;;;;;;;13.37;58.21;99952.84;221345;1244;140372;-64
2022/10/11 18:44:31;;;;;;;18.60;9.00;;;;;;;13.29;58.54;99949.75;221410;1240;140385;-63
2022/10/11 18:49:35;;;;;;;14.00;7.40;;;;;;;13.18;58.61;99958.19;221263;1246;139426;-63
2022/10/11 18:54:39;;;;;;;13.00;6.50;;;;;;;13.06;58.56;99957.13;221332;1246;139023;-64
2022/10/11 18:59:45;;;;;;;13.90;6.60;;;;;;;12.92;58.62;99956.66;221297;1246;139402;-61
2022/10/11 19:04:51;;;;;;;11.20;6.30;;;;;;;12.79;58.84;99953.30;221283;1246;140131;-63
2022/10/11 19:09:56;;;;;;;14.80;6.90;;;;;;;12.65;58.81;99953.89;221396;1246;139147;-63
2022/10/11 19:15:00;;;;;;;12.90;7.00;;;;;;;12.52;58.96;99956.58;221374;1240;139967;-62
2022/10/11 19:20:06;;;;;;;17.10;7.40;;;;;;;12.39;59.35;99962.48;221289;1246;139628;-62
2022/10/11 19:25:10;;;;;;;14.50;7.00;;;;;;;12.29;59.56;99966.21;221288;1246;139675;-63
2022/10/11 19:30:14;;;;;;;135.60;80.60;;;;;;;12.25;59.65;99967.48;221263;1246;140491;-63
2022/10/11 19:35:18;;;;;;;19.00;8.50;;;;;;;12.28;59.98;99971.24;221348;1246;140079;-64
2022/10/11 19:40:21;;;;;;;19.20;8.20;;;;;;;12.25;59.89;99972.63;221269;1246;140449;-64
2022/10/11 19:45:26;;;;;;;18.10;7.90;;;;;;;12.18;59.74;99973.54;221497;1247;140354;-63
2022/10/11 19:50:29;;;;;;;23.00;10.20;;;;;;;12.09;59.77;99977.61;221224;1250;139472;-64
2022/10/11 19:55:34;;;;;;;21.50;9.40;;;;;;;12.01;59.96;99977.31;221123;1246;139459;-63
2022/10/11 20:00:39;;;;;;;19.20;11.20;;;;;;;11.91;59.76;99982.66;221329;1246;140282;-65
2022/10/11 20:05:42;;;;;;;26.10;12.00;;;;;;;11.80;60.29;99984.59;221395;1251;140003;-65
2022/10/11 20:10:46;;;;;;;23.70;12.40;;;;;;;11.71;60.27;99983.47;221383;1246;139784;-65
2022/10/11 20:15:58;;;;;;;26.60;11.50;;;;;;;11.61;60.63;99983.42;221537;1240;139737;-64
2022/10/11 20:21:10;;;;;;;18.80;11.00;;;;;;;11.51;60.62;99984.85;221391;1247;140669;-65
2022/10/11 20:26:21;;;;;;;30.50;12.50;;;;;;;11.44;60.76;99987.52;221402;1247;139735;-64
2022/10/11 20:31:32;;;;;;;24.40;12.50;;;;;;;11.42;61.07;99994.17;221426;1240;140134;-64
2022/10/11 20:36:36;;;;;;;29.80;12.30;;;;;;;11.42;61.21;99995.61;221413;1246;141857;-63
2022/10/11 20:41:39;;;;;;;25.50;14.00;;;;;;;11.40;61.28;99996.62;221383;1240;140363;-63
2022/10/11 20:46:43;;;;;;;31.80;15.50;;;;;;;11.38;61.29;99999.70;221326;1241;139534;-64
2022/10/11 20:51:47;;;;;;;27.10;14.70;;;;;;;11.34;61.26;99998.66;221524;1243;139674;-63
2022/10/11 20:56:52;;;;;;;29.10;15.90;;;;;;;11.29;61.14;100001.60;221384;1247;139935;-64
2022/10/11 21:01:56;;;;;;;28.50;15.60;;;;;;;11.21;61.19;100001.80;221394;1246;140530;-63
2022/10/11 21:07:00;;;;;;;27.90;16.40;;;;;;;11.11;61.30;100005.13;221360;1246;140236;-60
2022/10/11 21:12:05;;;;;;;28.00;16.50;;;;;;;10.98;61.24;100002.00;221356;1247;140634;-64
2022/10/11 21:17:10;;;;;;;29.50;16.00;;;;;;;10.86;61.15;100001.89;221462;1248;139928;-63
2022/10/11 21:22:14;;;;;;;26.40;15.40;;;;;;;10.76;61.17;100006.29;221328;1246;139676;-64
2022/10/11 21:27:20;;;;;;;24.60;15.70;;;;;;;10.68;61.27;100011.63;221500;1246;139356;-64
2022/10/11 21:32:25;;;;;;;33.90;16.00;;;;;;;10.60;61.36;100013.42;221432;1246;140380;-64
2022/10/11 21:37:29;;;;;;;31.20;16.50;;;;;;;10.58;61.59;100011.59;221378;1239;140890;-64
2022/10/11 21:42:32;;;;;;;28.10;17.20;;;;;;;10.56;61.31;100011.84;221504;1243;140243;-63
2022/10/11 21:47:36;;;;;;;31.60;15.90;;;;;;;10.55;61.59;100015.44;221619;1246;140596;-62
2022/10/11 21:52:42;;;;;;;31.40;15.90;;;;;;;10.49;61.27;100015.53;221631;1240;139535;-64
2022/10/11 21:57:46;;;;;;;28.20;16.40;;;;;;;10.43;61.58;100015.95;221678;1253;140610;-63
2022/10/11 22:03:02;;;;;;;29.20;16.70;;;;;;;10.37;61.60;100016.09;221551;1249;139534;-64
2022/10/11 22:08:05;;;;;;;34.10;16.40;;;;;;;10.28;61.25;100015.77;221530;1247;139873;-63
2022/10/11 22:13:10;;;;;;;31.20;15.50;;;;;;;10.18;61.25;100013.14;221459;1251;140026;-64
2022/10/11 22:18:14;;;;;;;28.70;16.30;;;;;;;10.11;61.46;100010.30;221419;1246;140183;-64
2022/10/11 22:23:18;;;;;;;32.00;17.40;;;;;;;10.04;61.29;100009.56;221571;1246;139887;-64
2022/10/11 22:28:22;;;;;;;30.90;17.60;;;;;;;9.94;61.43;100012.48;221393;1253;139629;-65
2022/10/11 22:33:27;;;;;;;30.40;16.70;;;;;;;9.83;61.46;100018.42;221473;1247;140640;-64
2022/10/11 22:38:35;;;;;;;28.50;17.40;;;;;;;9.75;61.58;100020.91;221385;1246;139758;-64
2022/10/11 22:43:39;;;;;;;34.80;17.60;;;;;;;9.74;61.56;100017.58;221501;1246;140069;-64
2022/10/11 22:48:43;;;;;;;29.80;16.80;;;;;;;9.78;61.78;100015.45;221466;1246;140255;-64
2022/10/11 22:53:47;;;;;;;34.60;16.50;;;;;;;9.78;61.74;100017.59;221286;1246;139633;-64
2022/10/11 22:58:53;;;;;;;;;;;;;;;9.75;61.76;100014.55;221368;1247;139368;-64
2022/10/11 23:03:56;;;;;;;28.40;15.90;;;;;;;9.71;61.74;100014.87;221389;1250;125956;-64
2022/10/11 23:09:01;;;;;;;26.70;14.80;;;;;;;9.68;61.49;100016.41;221285;1245;140204;-64